TimeCST,TemperatureF,Dew PointF,Humidity,Sea Level PressureIn,VisibilityMPH,Wind Direction,Wind SpeedMPH,Gust SpeedMPH,PrecipitationIn,Events,Conditions,WindDirDegrees,DateUTC
12:53 AM,39.9,18.0,41,30.00,10.0,South,9.2,17.3,N/A,,Overcast,190,2013-11-20 06:53:00
1:53 AM,39.9,18.0,41,29.99,10.0,SSE,10.4,18.4,N/A,,Overcast,160,2013-11-20 07:53:00
2:53 AM,39.9,18.0,41,30.00,10.0,South,15.0,25.3,N/A,,Overcast,170,2013-11-20 08:53:00
3:53 AM,41.0,18.0,40,29.99,10.0,South,11.5,18.4,N/A,,Overcast,170,2013-11-20 09:53:00
4:53 AM,41.0,19.0,41,29.99,10.0,South,8.1,20.7,N/A,,Overcast,170,2013-11-20 10:53:00
5:53 AM,39.9,19.0,43,29.98,10.0,South,6.9,-,N/A,,Overcast,170,2013-11-20 11:53:00
6:53 AM,39.9,19.0,43,29.98,10.0,South,12.7,18.4,N/A,,Overcast,170,2013-11-20 12:53:00
7:53 AM,39.9,19.0,43,29.99,10.0,South,12.7,20.7,N/A,,Overcast,170,2013-11-20 13:53:00
8:53 AM,39.9,19.9,45,30.01,10.0,South,10.4,-,N/A,,Overcast,180,2013-11-20 14:53:00
9:53 AM,39.9,19.9,45,30.02,10.0,SSE,9.2,-,N/A,,Overcast,160,2013-11-20 15:53:00
10:53 AM,41.0,21.0,45,30.01,10.0,South,11.5,19.6,N/A,,Overcast,170,2013-11-20 16:53:00
11:53 AM,42.1,21.0,43,30.00,10.0,SSE,9.2,-,N/A,,Overcast,160,2013-11-20 17:53:00
12:53 PM,42.1,21.9,45,29.99,10.0,South,13.8,21.9,N/A,,Overcast,180,2013-11-20 18:53:00
1:53 PM,41.0,24.1,51,29.99,10.0,South,12.7,23.0,N/A,,Overcast,170,2013-11-20 19:53:00
2:53 PM,39.9,25.0,55,30.00,10.0,South,9.2,18.4,N/A,,Overcast,170,2013-11-20 20:53:00
3:53 PM,37.0,28.0,70,30.00,10.0,SSE,16.1,24.2,N/A,,Overcast,160,2013-11-20 21:53:00
4:13 PM,37.4,28.4,70,29.97,10.0,SSE,10.4,-,N/A,,Overcast,160,2013-11-20 22:13:00
4:53 PM,36.0,28.9,76,30.02,10.0,South,10.4,19.6,N/A,,Overcast,170,2013-11-20 22:53:00
5:05 PM,35.6,28.4,75,29.99,10.0,South,13.8,19.6,N/A,,Overcast,170,2013-11-20 23:05:00
5:53 PM,35.1,28.9,78,30.03,10.0,South,10.4,18.4,N/A,,Overcast,180,2013-11-20 23:53:00
6:53 PM,35.1,28.9,78,30.05,10.0,South,8.1,-,N/A,,Overcast,170,2013-11-21 00:53:00
7:53 PM,34.0,28.9,82,30.06,10.0,South,5.8,-,N/A,,Overcast,170,2013-11-21 01:53:00
8:53 PM,34.0,30.0,85,30.07,10.0,South,4.6,-,N/A,,Overcast,170,2013-11-21 02:53:00
9:53 PM,34.0,30.0,85,30.07,10.0,South,4.6,-,N/A,,Overcast,170,2013-11-21 03:53:00
10:53 PM,34.0,30.0,85,30.07,10.0,SSE,5.8,-,N/A,,Overcast,160,2013-11-21 04:53:00
11:53 PM,34.0,30.0,85,30.08,10.0,South,4.6,-,N/A,,Overcast,170,2013-11-21 05:53:00